Here is the Quick Look data you requested

The Data originates at the National Weather Service, and is made available here by the UAlbany Department of Atmospheric and Environmental Sciences

Surface Observations

KABE 251751Z 17003KT 10SM -RA SCT075 OVC095 17/06 A2994 RMK AO2 RAB1659E10B29
 SLP136 P0000 60000 T01720061 10178 20117 56009=
KAFJ 251756Z AUTO 16005KT 10SM OVC007 16/14 A2987 RMK AO2 RAE09 SLP112 P0001
 60010 T01560139 10161 20106 58019=
KAGC 251753Z 13003KT 3SM BR OVC004 14/13 A2984 RMK AO2 RAE16 SLP108 P0000 60009
 T01390128 10139 20100 58018=
KAOO 251753Z AUTO 21005KT 10SM -RA OVC026 15/07 A2990 RMK AO2 RAE13B38 SLP124
 P0000 60002 T01500072 10150 20106 58008=
KAVP 251754Z 24008KT 9SM OVC080 18/03 A2989 RMK AO2 SLP121 T01830033 10189
 20089 56017=
KBFD 251753Z AUTO 17007KT 10SM BKN032 OVC041 14/01 A2987 RMK AO2 SLP118
 T01390011 10144 20039 58012=
KBTP 251756Z AUTO VRB03KT 10SM OVC016 16/11 A2985 RMK AO2 SLP113 60000
 T01610111 10161 20094 58020=
KCXY 251756Z 12006KT 10SM OVC050 16/08 A2993 RMK AO2 SLP135 60000 T01610078
 10167 20133 56007=
KDUJ 251753Z AUTO VRB03KT 10SM BKN019 OVC024 12/07 A2986 RMK AO2 SLP115
 T01220067 10122 20072 58014=
KDYL 251754Z AUTO 17006KT 10SM FEW055 BKN080 OVC100 17/06 A2993 RMK AO2 SLP133
 T01720061 10172 20117 56013=
KERI 251751Z 02009KT 10SM OVC055 14/03 A2984 RMK AO2 SLP106 T01390028 10189
 20078 56020=
KFIG 251754Z AUTO 18005KT 10SM OVC022 13/08 A2990 RMK AO2 SLP125 60000
 T01330083 10133 20072 58012=
KFKL 251756Z AUTO 17007KT 10SM OVC024 16/08 A2984 RMK AO2 SLP108 6////
 T01560083 10161 20067 58023=
KGKJ 251753Z AUTO 20006KT 10SM OVC031 17/06 A2983 RMK AO2 SLP100 T01670056
 10167 20072 56023 TSNO=
KIDI 251755Z AUTO VRB04KT 10SM FEW009 OVC014 14/13 A2990 RMK A01=
KIPT 251754Z 00000KT 10SM OVC048 15/04 A2990 RMK AO2 SLP126 60000 T01500039
 10156 20083 56012=
KJST 251754Z AUTO 19006KT 10SM -RA FEW047 BKN070 OVC090 14/11 A2988 RMK AO2
 RAB09 SLP117 P0001 60005 T01390111 10139 20089 58011=
KLBE 251745Z 00000KT 8SM FEW007 SCT055 BKN100 16/16 A2985=
KLNS 251753Z 13004KT 10SM SCT075 OVC100 17/09 A2992 RMK AO2 RAB1659E10 SLP132
 P0000 60000 T01720094 10172 20133 58009=
KMDT 251756Z 14003KT 10SM OVC055 16/09 A2992 RMK AO2 RAB40E53 SLP132 P0000
 60000 T01560089 10167 20139 55007=
KMPO 251753Z AUTO 20008KT 10SM BKN070 15/03 A2991 RMK AO2 SLP132 T01500033
 10161 20083 56009=
KMUI 251756Z AUTO 03003KT 10SM SCT055 OVC075 16/08 A2993 RMK AO2 SLP137 60000
 T01550078 10157 20116 57009=
KPHL 251754Z 15004KT 10SM -RA FEW070 BKN100 OVC150 19/08 A2992 RMK AO2 RAB50
 SLP133 P0000 60000 T01890083 10194 20133 58013=
KPIT 251751Z VRB06KT 10SM BKN008 BKN012 OVC050 14/13 A2984 RMK AO2 SLP110 60003
 T01440128 10144 20100 58017=
KPNE 251754Z 00000KT 10SM FEW070 OVC095 19/08 A2994 RMK AO2 SLP138 T01940078
 10194 20133 58016 $=
KPTW 251754Z AUTO 18004KT 10SM FEW060 OVC090 16/07 A2994 RMK AO2 SLP136
 T01610067 10167 20111 58013=
KRDG 251754Z 00000KT 10SM OVC080 18/08 A2991 RMK AO2 RAE17 SLP134 P0000 60000
 T01780078 10183 20122 58012=
KSEG 251753Z AUTO 17005KT 10SM OVC043 14/07 A2993 RMK AO2 SLP133 60000
 T01440067 10144 20111 58009=
KTHV 251753Z AUTO 00000KT 10SM -RA SCT065 BKN080 OVC110 17/08 A2992 RMK AO2
 RAE03B52 SLP133 P0000 60000 T01670083 10172 20133 56006=
KUNV 251753Z 00000KT 8SM -DZ BKN026 OVC037 13/07 A2991=